createdAt,value
2019-03-23T00:02:07.932Z,117.08
2019-03-23T00:04:36.825Z,109.05
2019-03-23T00:07:05.374Z,117.15
2019-03-23T00:09:33.877Z,122.33
2019-03-23T00:12:02.496Z,119.72
2019-03-23T00:14:31.051Z,118.70
2019-03-23T00:16:59.646Z,116.05
2019-03-23T00:19:27.902Z,115.60
2019-03-23T00:21:56.768Z,114.52
2019-03-23T00:24:26.991Z,111.75
2019-03-23T00:26:56.071Z,118.07
2019-03-23T00:29:24.608Z,118.00
2019-03-23T00:31:53.240Z,115.60
2019-03-23T00:34:21.781Z,120.13
2019-03-23T00:36:50.081Z,115.12
2019-03-23T00:39:19.057Z,113.92
2019-03-23T00:41:47.743Z,112.45
2019-03-23T00:44:16.288Z,117.08
2019-03-23T00:46:44.533Z,115.47
2019-03-23T00:49:13.043Z,113.47
2019-03-23T00:51:41.293Z,114.10
2019-03-23T00:54:09.571Z,122.87
2019-03-23T00:56:38.378Z,110.93
2019-03-23T00:59:06.684Z,113.72
2019-03-23T01:01:35.287Z,111.93
2019-03-23T01:04:04.012Z,113.83
2019-03-23T01:06:32.313Z,119.13
2019-03-23T01:09:01.191Z,112.77
2019-03-23T01:11:29.721Z,117.82
2019-03-23T01:13:57.974Z,117.30
2019-03-23T01:16:27.185Z,116.23
2019-03-23T01:18:55.406Z,115.75
2019-03-23T01:21:23.685Z,115.55
2019-03-23T01:23:52.487Z,117.82
2019-03-23T01:26:21.074Z,112.40
2019-03-23T01:28:49.777Z,120.22
2019-03-23T01:31:18.497Z,117.93
2019-03-23T01:33:47.593Z,121.17
2019-03-23T01:36:15.823Z,122.58
2019-03-23T01:38:44.332Z,117.33
2019-03-23T01:41:13.444Z,126.67
2019-03-23T01:43:42.021Z,119.30
2019-03-23T01:46:10.933Z,117.53
2019-03-23T01:48:39.504Z,117.30
2019-03-23T01:51:08.402Z,127.10
2019-03-23T01:53:36.945Z,127.72
2019-03-23T01:56:05.460Z,121.10
2019-03-23T01:58:34.054Z,125.97
2019-03-23T02:01:02.289Z,127.45
2019-03-23T02:03:30.512Z,118.42
2019-03-23T02:05:59.087Z,121.70
2019-03-23T02:08:27.321Z,119.37
2019-03-23T02:10:55.849Z,132.78
2019-03-23T02:13:24.548Z,123.13
2019-03-23T02:15:53.094Z,131.03
2019-03-23T02:18:21.597Z,123.00
2019-03-23T02:20:50.490Z,126.60
2019-03-23T02:23:19.071Z,128.85
2019-03-23T02:25:47.321Z,126.97
2019-03-23T02:28:16.137Z,133.63
2019-03-23T02:30:44.465Z,123.33
2019-03-23T02:33:12.729Z,130.12
2019-03-23T02:35:40.946Z,132.75
2019-03-23T02:38:09.193Z,133.30
2019-03-23T02:40:37.770Z,132.25
2019-03-23T02:43:06.044Z,122.58
2019-03-23T02:45:34.600Z,123.35
2019-03-23T02:48:03.187Z,125.55
2019-03-23T02:50:31.796Z,136.68
2019-03-23T02:53:00.026Z,141.10
2019-03-23T02:55:28.682Z,138.60
2019-03-23T02:57:57.513Z,141.10
2019-03-23T03:00:27.653Z,131.37
2019-03-23T03:02:56.215Z,131.90
2019-03-23T03:05:24.461Z,127.30
2019-03-23T03:07:53.041Z,116.33
2019-03-23T03:10:36.833Z,124.10
2019-03-23T03:13:05.402Z,112.42
2019-03-23T03:15:34.345Z,136.57
2019-03-23T03:18:02.885Z,122.10
2019-03-23T03:20:31.764Z,118.47
2019-03-23T03:23:00.380Z,132.80
2019-03-23T03:25:28.653Z,135.57
2019-03-23T03:27:57.159Z,124.18
2019-03-23T03:30:26.222Z,121.30
2019-03-23T03:32:55.094Z,127.67
2019-03-23T03:35:23.755Z,112.00
2019-03-23T03:37:56.805Z,141.43
2019-03-23T03:40:22.385Z,128.42
2019-03-23T03:42:51.282Z,154.80
2019-03-23T03:45:23.385Z,127.22
2019-03-23T03:47:51.926Z,162.62
2019-03-23T03:50:20.506Z,212.47
2019-03-23T03:52:49.106Z,162.45
2019-03-23T03:55:17.986Z,187.53
2019-03-23T03:57:46.224Z,333.27
2019-03-23T04:00:14.553Z,474.63
2019-03-23T04:02:43.206Z,218.35
2019-03-23T04:05:12.131Z,327.20
2019-03-23T04:07:40.798Z,184.70
2019-03-23T04:10:09.005Z,245.27
2019-03-23T04:12:37.340Z,542.03
2019-03-23T04:15:06.026Z,217.93
2019-03-23T04:17:34.326Z,226.42
2019-03-23T04:20:02.607Z,237.27
2019-03-23T04:22:31.554Z,724.93
2019-03-23T04:25:00.282Z,237.35
2019-03-23T04:27:29.939Z,319.77
2019-03-23T04:29:58.145Z,422.15
2019-03-23T04:32:26.644Z,316.57
2019-03-23T04:34:55.248Z,534.55
2019-03-23T04:37:23.809Z,422.82
2019-03-23T04:39:52.358Z,261.70
2019-03-23T04:42:20.872Z,503.48
2019-03-23T04:44:49.131Z,379.15
2019-03-23T04:47:17.735Z,668.63
2019-03-23T04:49:45.964Z,178.38
2019-03-23T04:52:14.206Z,299.32
2019-03-23T04:54:42.802Z,144.77
2019-03-23T04:57:11.387Z,135.57
2019-03-23T04:59:39.629Z,152.07
2019-03-23T05:02:08.280Z,204.95
2019-03-23T05:04:36.560Z,231.13
2019-03-23T05:07:04.771Z,151.50
2019-03-23T05:09:33.589Z,353.45
2019-03-23T05:12:02.211Z,383.87
2019-03-23T05:14:30.396Z,265.45
2019-03-23T05:16:59.012Z,511.92
2019-03-23T05:19:27.266Z,453.95
2019-03-23T05:21:55.924Z,416.62
2019-03-23T05:24:24.461Z,208.70
2019-03-23T05:26:52.697Z,318.97
2019-03-23T05:29:21.521Z,179.38
2019-03-23T05:31:50.191Z,543.83
2019-03-23T05:34:18.530Z,212.90
2019-03-23T05:36:47.066Z,543.23
2019-03-23T05:39:15.414Z,574.90
2019-03-23T05:41:43.632Z,252.35
2019-03-23T05:44:12.168Z,287.42
2019-03-23T05:46:40.785Z,187.77
2019-03-23T05:49:09.065Z,256.32
2019-03-23T05:51:37.752Z,388.30
2019-03-23T05:54:06.362Z,248.70
2019-03-23T05:56:34.665Z,356.52
2019-03-23T05:59:02.887Z,309.17
2019-03-23T06:01:31.524Z,348.93
2019-03-23T06:04:01.762Z,405.22
2019-03-23T06:06:30.002Z,464.45
2019-03-23T06:08:58.222Z,335.20
2019-03-23T06:11:26.494Z,300.68
2019-03-23T06:13:56.122Z,463.37
2019-03-23T06:16:24.787Z,358.87
2019-03-23T06:18:53.070Z,316.15
2019-03-23T06:21:21.340Z,203.70
2019-03-23T06:23:50.266Z,235.43
2019-03-23T06:26:19.157Z,157.50
2019-03-23T06:28:47.746Z,268.20
2019-03-23T06:31:16.326Z,277.50
2019-03-23T06:33:44.910Z,206.75
2019-03-23T06:36:13.394Z,196.35
2019-03-23T06:38:41.978Z,131.70
2019-03-23T06:41:10.480Z,140.18
2019-03-23T06:43:39.151Z,138.85
2019-03-23T06:46:07.328Z,137.20
2019-03-23T06:48:35.898Z,144.22
2019-03-23T06:51:04.487Z,144.62
2019-03-23T06:53:33.067Z,145.38
2019-03-23T06:56:01.323Z,129.00
2019-03-23T06:58:29.893Z,126.70
2019-03-23T07:00:58.494Z,132.30
2019-03-23T07:03:26.758Z,134.50
2019-03-23T07:05:55.585Z,140.47
2019-03-23T07:08:31.866Z,135.72
2019-03-23T07:10:54.379Z,135.70
2019-03-23T07:13:22.945Z,128.55
2019-03-23T07:15:51.501Z,122.10
2019-03-23T07:18:20.103Z,113.90
2019-03-23T07:20:48.622Z,105.15
2019-03-23T07:23:16.865Z,93.20
2019-03-23T07:25:45.106Z,85.92
2019-03-23T07:28:14.071Z,92.75
2019-03-23T07:30:42.326Z,90.50
2019-03-23T07:33:10.931Z,87.33
2019-03-23T07:35:39.478Z,86.95
2019-03-23T07:38:08.029Z,81.90
2019-03-23T07:40:36.289Z,82.00
2019-03-23T07:43:04.491Z,77.60
2019-03-23T07:45:32.723Z,76.40
2019-03-23T07:48:00.946Z,75.00
2019-03-23T07:50:29.486Z,74.03
2019-03-23T07:52:57.738Z,72.87
2019-03-23T07:55:26.585Z,73.57
2019-03-23T07:57:55.092Z,73.42
2019-03-23T08:00:23.440Z,73.15
2019-03-23T08:02:52.500Z,73.00
2019-03-23T08:05:20.749Z,72.17
2019-03-23T08:07:49.323Z,69.62
2019-03-23T08:10:27.096Z,72.12
2019-03-23T08:12:55.422Z,71.17
2019-03-23T08:15:24.002Z,69.60
2019-03-23T08:17:52.593Z,65.17
2019-03-23T08:20:21.704Z,68.83
2019-03-23T08:22:50.188Z,66.60
2019-03-23T08:25:19.072Z,69.20
2019-03-23T08:27:47.661Z,65.45
2019-03-23T08:30:16.250Z,69.50
2019-03-23T08:32:44.506Z,64.45
2019-03-23T08:35:13.524Z,60.45
2019-03-23T08:37:41.796Z,60.63
2019-03-23T08:40:10.368Z,62.80
2019-03-23T08:42:38.965Z,64.82
2019-03-23T08:45:08.012Z,67.62
2019-03-23T08:47:36.592Z,65.85
2019-03-23T08:50:05.002Z,61.90
2019-03-23T08:52:33.621Z,54.40
2019-03-23T08:55:01.888Z,56.68
2019-03-23T08:57:30.779Z,57.70
2019-03-23T08:59:59.001Z,58.50
2019-03-23T09:02:28.083Z,56.00
2019-03-23T09:04:56.309Z,58.20
2019-03-23T09:07:24.869Z,59.38
2019-03-23T09:09:59.043Z,59.73
2019-03-23T09:12:23.718Z,63.80
2019-03-23T09:14:51.992Z,66.95
2019-03-23T09:17:20.521Z,66.62
2019-03-23T09:19:49.059Z,69.42
2019-03-23T09:22:17.276Z,63.73
2019-03-23T09:24:46.227Z,60.10
2019-03-23T09:27:14.472Z,59.18
2019-03-23T09:29:43.587Z,58.80
2019-03-23T09:32:12.191Z,57.55
2019-03-23T09:34:40.438Z,61.75
2019-03-23T09:37:08.710Z,55.50
2019-03-23T09:39:37.638Z,61.00
2019-03-23T09:42:07.144Z,61.75
2019-03-23T09:44:35.837Z,64.75
2019-03-23T09:47:04.809Z,62.47
2019-03-23T09:49:33.051Z,64.05
2019-03-23T09:52:01.663Z,64.47
2019-03-23T09:54:30.671Z,61.33
2019-03-23T09:56:59.662Z,57.10
2019-03-23T09:59:28.640Z,53.30
2019-03-23T10:01:56.881Z,51.42
2019-03-23T10:04:25.414Z,53.08
2019-03-23T10:06:54.201Z,51.50
2019-03-23T10:09:22.478Z,54.50
2019-03-23T10:11:50.769Z,49.80
2019-03-23T10:14:19.069Z,52.65
2019-03-23T10:16:47.626Z,53.90
2019-03-23T10:19:16.153Z,57.70
2019-03-23T10:21:44.414Z,59.33
2019-03-23T10:24:13.374Z,53.38
2019-03-23T10:26:41.963Z,54.53
2019-03-23T10:29:10.841Z,56.00
2019-03-23T10:31:39.163Z,56.60
2019-03-23T10:34:07.413Z,52.53
2019-03-23T10:36:36.037Z,51.83
2019-03-23T10:39:05.795Z,53.15
2019-03-23T10:41:34.371Z,53.63
2019-03-23T10:44:02.737Z,57.17
2019-03-23T10:46:30.999Z,52.50
2019-03-23T10:48:59.968Z,51.43
2019-03-23T10:51:28.712Z,50.63
2019-03-23T10:53:56.974Z,47.48
2019-03-23T10:56:25.191Z,49.95
2019-03-23T10:58:53.955Z,49.65
2019-03-23T11:01:22.681Z,55.28
2019-03-23T11:03:50.937Z,55.80
2019-03-23T11:06:19.614Z,53.63
2019-03-23T11:08:48.128Z,52.83
2019-03-23T11:11:16.636Z,51.42
2019-03-23T11:13:45.562Z,51.18
2019-03-23T11:16:14.105Z,52.13
2019-03-23T11:18:42.735Z,52.45
2019-03-23T11:21:11.020Z,52.27
2019-03-23T11:23:40.125Z,48.02
2019-03-23T11:26:08.432Z,49.75
2019-03-23T11:28:37.057Z,52.20
2019-03-23T11:31:05.618Z,51.40
2019-03-23T11:33:33.825Z,57.50
2019-03-23T11:36:02.065Z,52.70
2019-03-23T11:38:31.005Z,54.73
2019-03-23T11:40:59.272Z,59.90
2019-03-23T11:43:28.169Z,55.20
2019-03-23T11:45:56.712Z,58.25
2019-03-23T11:48:25.001Z,57.43
2019-03-23T11:50:53.507Z,60.08
2019-03-23T11:53:22.088Z,60.23
2019-03-23T11:55:50.276Z,57.08
2019-03-23T11:58:18.521Z,57.45
2019-03-23T12:00:47.430Z,60.92
2019-03-23T12:03:15.765Z,62.90
2019-03-23T12:05:43.989Z,58.63
2019-03-23T12:08:12.657Z,64.20
2019-03-23T12:10:40.905Z,59.48
2019-03-23T12:13:09.682Z,57.80
2019-03-23T12:15:38.538Z,63.50
2019-03-23T12:18:07.005Z,57.25
2019-03-23T12:20:35.244Z,59.42
2019-03-23T12:23:03.497Z,57.20
2019-03-23T12:25:32.128Z,57.25
2019-03-23T12:28:00.356Z,57.50
2019-03-23T12:30:28.588Z,56.02
2019-03-23T12:32:56.836Z,58.35
2019-03-23T12:35:28.006Z,59.85
2019-03-23T12:37:56.497Z,61.28
2019-03-23T12:40:25.067Z,60.17
2019-03-23T12:42:53.317Z,60.12
2019-03-23T12:45:21.577Z,60.83
2019-03-23T12:47:49.858Z,58.23
2019-03-23T12:50:18.485Z,54.98
2019-03-23T12:52:47.358Z,56.18
2019-03-23T12:55:15.621Z,56.58
2019-03-23T12:57:43.831Z,54.63
2019-03-23T13:00:12.843Z,58.55
2019-03-23T13:02:41.419Z,62.30
2019-03-23T13:05:09.993Z,58.78
2019-03-23T13:07:38.828Z,60.00
2019-03-23T13:10:07.477Z,63.87
2019-03-23T13:12:36.605Z,66.02
2019-03-23T13:15:05.995Z,61.85
2019-03-23T13:17:34.213Z,67.17
2019-03-23T13:20:02.915Z,64.10
2019-03-23T13:22:31.212Z,65.32
2019-03-23T13:25:00.210Z,66.55
2019-03-23T13:27:28.824Z,64.42
2019-03-23T13:29:57.881Z,61.75
2019-03-23T13:32:26.126Z,63.90
2019-03-23T13:34:54.612Z,57.45
2019-03-23T13:37:23.545Z,66.65
2019-03-23T13:39:52.130Z,69.12
2019-03-23T13:42:20.714Z,66.43
2019-03-23T13:44:49.297Z,65.32
2019-03-23T13:47:17.852Z,69.37
2019-03-23T13:49:46.356Z,65.22
2019-03-23T13:52:15.211Z,61.80
2019-03-23T13:54:43.448Z,65.05
2019-03-23T13:57:12.119Z,66.17
2019-03-23T13:59:40.332Z,62.73
2019-03-23T14:02:08.606Z,60.90
2019-03-23T14:04:37.139Z,58.10
2019-03-23T14:07:05.365Z,57.33
2019-03-23T14:09:33.611Z,58.92
2019-03-23T14:12:02.236Z,58.17
2019-03-23T14:14:30.468Z,53.50
2019-03-23T14:16:58.707Z,49.73
2019-03-23T14:19:27.029Z,51.23
2019-03-23T14:21:55.400Z,54.77
2019-03-23T14:24:23.879Z,48.70
2019-03-23T14:26:52.105Z,44.07
2019-03-23T14:29:21.767Z,41.50
2019-03-23T14:31:50.344Z,42.58
2019-03-23T14:34:19.181Z,48.13
2019-03-23T14:36:48.039Z,46.60
2019-03-23T14:39:16.245Z,40.95
2019-03-23T14:41:44.785Z,47.55
2019-03-23T14:44:13.024Z,49.58
2019-03-23T14:46:41.632Z,48.40
2019-03-23T14:49:09.898Z,47.85
2019-03-23T14:51:38.249Z,46.60
2019-03-23T14:54:06.799Z,47.30
2019-03-23T14:56:35.621Z,46.33
2019-03-23T14:59:04.809Z,45.63
2019-03-23T15:01:33.026Z,45.17
2019-03-23T15:04:01.595Z,44.33
2019-03-23T15:06:29.829Z,43.28
2019-03-23T15:08:58.394Z,44.67
2019-03-23T15:11:26.981Z,43.50
2019-03-23T15:13:55.320Z,44.93
2019-03-23T15:16:24.046Z,43.17
2019-03-23T15:18:52.867Z,48.00
2019-03-23T15:21:21.486Z,45.33
2019-03-23T15:23:50.409Z,46.92
2019-03-23T15:26:18.671Z,44.40
2019-03-23T15:28:46.999Z,48.02
2019-03-23T15:31:15.258Z,48.42
2019-03-23T15:33:43.510Z,46.45
2019-03-23T15:36:12.098Z,44.20
2019-03-23T15:38:40.367Z,42.03
2019-03-23T15:41:08.958Z,45.48
2019-03-23T15:43:37.545Z,46.73
2019-03-23T15:46:06.841Z,44.60
2019-03-23T15:48:35.076Z,46.25
2019-03-23T15:51:03.444Z,42.40
2019-03-23T15:53:31.741Z,42.43
2019-03-23T15:56:00.366Z,40.15
2019-03-23T15:58:28.956Z,42.98
2019-03-23T16:00:57.464Z,40.73
2019-03-23T16:03:26.048Z,41.47
2019-03-23T16:05:54.284Z,35.92
2019-03-23T16:08:23.111Z,38.65
2019-03-23T16:10:52.416Z,42.15
2019-03-23T16:13:21.275Z,41.95
2019-03-23T16:15:49.522Z,38.73
2019-03-23T16:18:18.133Z,41.42
2019-03-23T16:20:47.537Z,39.08
2019-03-23T16:23:15.848Z,37.57
2019-03-23T16:25:44.678Z,41.08
2019-03-23T16:28:12.974Z,37.30
2019-03-23T16:30:41.566Z,37.57
2019-03-23T16:33:10.159Z,39.95
2019-03-23T16:35:38.367Z,37.42
2019-03-23T16:38:06.620Z,40.63
2019-03-23T16:40:34.829Z,38.45
2019-03-23T16:43:03.512Z,40.17
2019-03-23T16:45:32.355Z,39.88
2019-03-23T16:48:00.931Z,40.65
2019-03-23T16:50:29.427Z,36.87
2019-03-23T16:52:58.309Z,39.40
2019-03-23T16:55:26.604Z,40.63
2019-03-23T16:57:54.861Z,37.38
2019-03-23T17:00:33.897Z,36.50
2019-03-23T17:03:02.493Z,40.08
2019-03-23T17:05:31.464Z,38.93
2019-03-23T17:07:59.696Z,33.90
2019-03-23T17:10:27.962Z,38.17
2019-03-23T17:12:56.506Z,35.80
2019-03-23T17:15:25.392Z,33.00
2019-03-23T17:17:53.637Z,36.90
2019-03-23T17:20:21.857Z,30.62
2019-03-23T17:22:50.150Z,34.70
2019-03-23T17:25:19.022Z,33.35
2019-03-23T17:27:47.597Z,32.50
2019-03-23T17:30:17.207Z,28.90
2019-03-23T17:32:45.459Z,25.45
2019-03-23T17:35:14.357Z,21.77
2019-03-23T17:37:43.271Z,15.50
2019-03-23T17:40:11.934Z,18.92
2019-03-23T17:42:40.542Z,15.00
2019-03-23T17:45:10.244Z,16.10
2019-03-23T17:47:38.828Z,11.03
2019-03-23T17:50:07.188Z,12.30
2019-03-23T17:52:36.114Z,12.73
2019-03-23T17:55:04.796Z,10.45
2019-03-23T17:57:33.448Z,12.45
2019-03-23T18:00:02.274Z,15.60
2019-03-23T18:02:30.953Z,13.30
2019-03-23T18:05:00.004Z,13.45
2019-03-23T18:07:28.628Z,13.75
2019-03-23T18:09:56.871Z,14.47
2019-03-23T18:12:25.064Z,16.05
2019-03-23T18:14:53.673Z,11.77
2019-03-23T18:17:21.984Z,14.98
2019-03-23T18:19:50.254Z,15.58
2019-03-23T18:22:18.775Z,13.15
2019-03-23T18:24:47.337Z,15.78
2019-03-23T18:27:16.174Z,14.75
2019-03-23T18:29:47.473Z,15.75
2019-03-23T18:32:15.921Z,13.48
2019-03-23T18:34:44.153Z,12.90
2019-03-23T18:37:12.377Z,12.10
2019-03-23T18:39:40.630Z,14.85
2019-03-23T18:42:09.227Z,16.27
2019-03-23T18:44:37.485Z,23.22
2019-03-23T18:47:05.770Z,35.05
2019-03-23T18:49:34.650Z,30.62
2019-03-23T18:52:03.493Z,16.87
2019-03-23T18:54:31.756Z,15.08
2019-03-23T18:57:00.928Z,17.87
2019-03-23T18:59:29.153Z,20.37
2019-03-23T19:01:57.765Z,16.52
2019-03-23T19:04:26.361Z,19.02
2019-03-23T19:06:54.941Z,15.53
2019-03-23T19:09:23.752Z,18.65
2019-03-23T19:11:51.950Z,20.73
2019-03-23T19:14:20.520Z,18.05
2019-03-23T19:16:49.378Z,17.77
2019-03-23T19:19:17.644Z,17.27
2019-03-23T19:21:46.303Z,16.32
2019-03-23T19:24:15.371Z,15.13
2019-03-23T19:26:43.942Z,15.23
2019-03-23T19:29:12.226Z,14.53
2019-03-23T19:31:40.801Z,16.23
2019-03-23T19:34:09.399Z,16.73
2019-03-23T19:36:37.626Z,13.80
2019-03-23T19:39:08.071Z,13.95
2019-03-23T19:41:36.368Z,16.60
2019-03-23T19:44:04.899Z,18.15
2019-03-23T19:46:33.434Z,17.55
2019-03-23T19:49:01.690Z,14.10
2019-03-23T19:51:29.900Z,18.17
2019-03-23T19:53:58.156Z,14.03
2019-03-23T19:56:26.648Z,15.05
2019-03-23T19:58:54.934Z,31.85
2019-03-23T20:01:23.395Z,22.10
2019-03-23T20:03:52.603Z,24.60
2019-03-23T20:06:20.873Z,23.40
2019-03-23T20:08:49.208Z,28.47
2019-03-23T20:11:17.760Z,22.02
2019-03-23T20:13:46.625Z,18.65
2019-03-23T20:16:15.208Z,19.15
2019-03-23T20:18:43.428Z,17.47
2019-03-23T20:21:11.969Z,17.75
2019-03-23T20:23:40.545Z,18.17
2019-03-23T20:26:09.146Z,14.53
2019-03-23T20:28:37.397Z,16.27
2019-03-23T20:31:06.009Z,13.73
2019-03-23T20:33:34.993Z,16.32
2019-03-23T20:36:03.263Z,17.55
2019-03-23T20:38:31.938Z,18.57
2019-03-23T20:41:00.748Z,17.05
2019-03-23T20:43:28.965Z,19.32
2019-03-23T20:45:57.469Z,19.57
2019-03-23T20:48:26.740Z,15.85
2019-03-23T20:50:55.269Z,17.43
2019-03-23T20:53:24.493Z,22.77
2019-03-23T20:55:53.182Z,32.88
2019-03-23T20:58:21.514Z,20.75
2019-03-23T21:00:50.049Z,28.32
2019-03-23T21:03:18.302Z,31.30
2019-03-23T21:05:46.889Z,16.00
2019-03-23T21:08:15.381Z,19.02
2019-03-23T21:10:43.970Z,15.75
2019-03-23T21:13:12.541Z,17.27
2019-03-23T21:15:40.789Z,18.95
2019-03-23T21:18:09.349Z,16.82
2019-03-23T21:20:38.093Z,17.63
2019-03-23T21:23:06.961Z,16.27
2019-03-23T21:25:35.613Z,15.25
2019-03-23T21:28:04.227Z,19.25
2019-03-23T21:30:32.728Z,17.98
2019-03-23T21:33:01.322Z,16.93
2019-03-23T21:35:29.883Z,14.10
2019-03-23T21:37:58.098Z,14.18
2019-03-23T21:40:26.338Z,17.27
2019-03-23T21:42:54.564Z,17.87
2019-03-23T21:45:22.809Z,47.80
2019-03-23T21:47:51.315Z,52.43
2019-03-23T21:50:20.177Z,32.10
2019-03-23T21:52:49.082Z,25.43
2019-03-23T21:55:17.553Z,21.57
2019-03-23T21:57:45.770Z,24.63
2019-03-23T22:00:16.577Z,21.60
2019-03-23T22:02:45.452Z,23.40
2019-03-23T22:05:14.001Z,21.87
2019-03-23T22:07:42.225Z,23.10
2019-03-23T22:10:10.765Z,22.82
2019-03-23T22:12:38.974Z,21.55
2019-03-23T22:15:07.725Z,20.82
2019-03-23T22:17:36.259Z,24.47
2019-03-23T22:20:05.569Z,21.35
2019-03-23T22:22:34.113Z,25.97
2019-03-23T22:25:02.407Z,20.77
2019-03-23T22:27:30.717Z,20.90
2019-03-23T22:29:59.323Z,22.00
2019-03-23T22:32:27.581Z,21.12
2019-03-23T22:34:55.780Z,23.18
2019-03-23T22:37:24.026Z,18.67
2019-03-23T22:39:52.203Z,21.40
2019-03-23T22:42:20.461Z,20.62
2019-03-23T22:44:52.699Z,17.12
2019-03-23T22:47:19.496Z,20.37
2019-03-23T22:49:48.193Z,24.07
2019-03-23T22:52:16.445Z,20.43
2019-03-23T22:54:44.900Z,20.65
2019-03-23T22:57:13.207Z,19.57
2019-03-23T22:59:41.444Z,20.10
2019-03-23T23:02:10.093Z,16.30
2019-03-23T23:04:38.374Z,23.32
2019-03-23T23:07:06.594Z,20.43
2019-03-23T23:09:34.849Z,22.58
2019-03-23T23:12:03.177Z,21.17
2019-03-23T23:14:31.437Z,22.17
2019-03-23T23:16:59.967Z,24.02
2019-03-23T23:19:28.485Z,22.87
2019-03-23T23:21:57.073Z,24.15
2019-03-23T23:24:25.860Z,20.25
2019-03-23T23:26:54.365Z,21.40
2019-03-23T23:29:22.930Z,17.80
2019-03-23T23:31:51.253Z,20.80
2019-03-23T23:34:19.472Z,21.42
2019-03-23T23:36:48.024Z,22.75
2019-03-23T23:39:16.549Z,18.00
2019-03-23T23:41:45.961Z,21.07
2019-03-23T23:44:14.549Z,22.13
2019-03-23T23:46:43.427Z,21.37
2019-03-23T23:49:12.018Z,22.87
2019-03-23T23:51:49.766Z,15.30
2019-03-23T23:54:10.220Z,21.93
2019-03-23T23:56:38.484Z,23.73
2019-03-23T23:59:07.074Z,19.95
